Weather History for Breckenridge, TX

Change the Weather History Date:

Wednesday, August 21, 2013

  Actual Average (KABI) Record (KABI)
Temperature  
Mean Temperature 82 °F 82 °F  
Max Temperature 95 °F 94 °F 104 °F (1930)
Min Temperature 70 °F 71 °F 57 °F (1956)
Degree Days  
Heating Degree Days 0 0  
Month to date heating degree days 0  
Since 1 June heating degree days 1  
Since 1 July heating degree days 0  
Cooling Degree Days 17 17  
Month to date cooling degree days 389  
Year to date cooling degree days 1782  
Since 1 June cooling degree days 1385  
Growing Degree Days 32 (Base 50)    
Moisture  
Dew Point 58 °F    
Average Humidity 45    
Maximum Humidity 73    
Minimum Humidity 25    
Precipitation  
Precipitation 0.00 in 0.09 in 2.20 in (1937)
Month to date precipitation 1.71  
Year to date precipitation 16.08  
Sea Level Pressure  
Sea Level Pressure 30.05 in    
Wind  
Wind Speed 7 mph (SSE)    
Max Wind Speed 15 mph    
Max Gust Speed 24 mph    
Visibility 10 miles    
Events      
T = Trace of Precipitation, MM = Missing Value Source: NWS Daily Summary

Daily Weather History Graph

Daily Weather History Graph

Search for Another Location

Airport:

Trip Planner

Search our weather history database for the weather conditions in past years. The results will help you decide how hot, cold, wet, or windy it might be!

Date:

Astronomy

Aug. 21, 2013 Rise Set
Actual Time 7:03 AM CDT 8:13 PM CDT
Civil Twilight 6:37 AM CDT 8:38 PM CDT
Nautical Twilight 6:07 AM CDT 9:09 PM CDT
Astronomical Twilight 5:35 AM CDT 9:40 PM CDT
Moon 8:30 PM CDT (8/21) 7:39 AM CDT (8/21)
Length of Visible Light 14h 01m
Length of Day
13h 10m
Waxing Gibbous, 99% of the Moon is Illuminated
Aug 21
Waxing Gibbous
Aug 28
Last Quarter
Sep 5
New
Sep 12
First Quarter
Sep 19
Full

Hourly Weather History & Observations

Time (CDT) Temp. Heat Index Dew Point Humidity Pressure Visibility Wind Dir Wind Speed Gust Speed Precip Events Conditions
12:15 AM 80.2 °F - 52.9 °F 39% 30.02 in 10.0 mi SSE 9.2 mph - N/A   Clear
12:35 AM 79.2 °F - 53.2 °F 41% 30.02 in 10.0 mi SSE 6.9 mph - N/A   Clear
12:55 AM 78.1 °F - 54.3 °F 44% 30.02 in 10.0 mi SSE 8.1 mph - N/A   Clear
1:15 AM 77.2 °F - 54.5 °F 45% 30.02 in 10.0 mi SSE 8.1 mph - N/A   Clear
1:35 AM 77.0 °F - 54.7 °F 46% 30.03 in 10.0 mi SSE 8.1 mph - N/A   Clear
1:55 AM 77.0 °F - 54.7 °F 46% 30.02 in 10.0 mi SSE 11.5 mph - N/A   Clear
2:15 AM 77.2 °F - 53.8 °F 44% 30.03 in 10.0 mi SE 10.4 mph - N/A   Clear
2:35 AM 75.7 °F - 54.3 °F 47% 30.03 in 10.0 mi SSE 8.1 mph - N/A   Clear
2:55 AM 77.0 °F - 55.6 °F 47% 30.03 in - SSE 10.4 mph - N/A   Clear
3:15 AM 76.1 °F - 56.5 °F 50% 30.03 in 10.0 mi SSE 9.2 mph - N/A   Clear
3:35 AM 76.5 °F - 57.0 °F 51% 30.03 in 10.0 mi SSE 11.5 mph - N/A   Clear
3:55 AM 76.1 °F - 57.7 °F 53% 30.03 in 10.0 mi SSE 8.1 mph - N/A   Clear
4:15 AM 75.2 °F - 58.6 °F 56% 30.04 in 10.0 mi South 8.1 mph - N/A   Clear
4:35 AM 75.2 °F - 59.0 °F 57% 30.04 in 10.0 mi South 6.9 mph - N/A   Clear
4:55 AM 74.8 °F - 59.7 °F 59% 30.04 in 10.0 mi SSE 5.8 mph - N/A   Clear
5:15 AM 74.3 °F - 60.1 °F 61% 30.04 in 10.0 mi South 5.8 mph - N/A   Clear
5:35 AM 73.4 °F - 60.6 °F 64% 30.05 in 10.0 mi SSE 4.6 mph - N/A   Clear
5:55 AM 73.6 °F - 60.8 °F 64% 30.05 in 10.0 mi South 3.5 mph - N/A   Clear
6:15 AM 73.0 °F - 61.0 °F 66% 30.05 in 10.0 mi SSE 3.5 mph - N/A   Clear
6:35 AM 72.0 °F - 61.0 °F 68% 30.06 in 10.0 mi Calm Calm - N/A   Clear
6:55 AM 72.5 °F - 61.3 °F 68% 30.06 in 10.0 mi South 3.5 mph - N/A   Clear
7:15 AM 71.2 °F - 61.3 °F 71% 30.07 in 10.0 mi SSE 3.5 mph - N/A   Clear
7:35 AM 70.9 °F - 61.7 °F 73% 30.07 in 10.0 mi Calm Calm - N/A   Scattered Clouds
7:55 AM 72.7 °F - 62.4 °F 70% 30.07 in 10.0 mi SSE 3.5 mph - N/A   Scattered Clouds
8:15 AM 74.8 °F - 63.1 °F 67% 30.08 in - South 3.5 mph - N/A   Clear
8:35 AM 76.5 °F - 63.9 °F 65% 30.08 in - South 4.6 mph - N/A   Clear
8:55 AM 79.3 °F - 64.6 °F 60% 30.09 in - SSW 8.1 mph - N/A   Scattered Clouds
9:15 AM 80.8 °F 82.5 °F 64.9 °F 58% 30.09 in - South 8.1 mph - N/A   Scattered Clouds
9:35 AM 81.7 °F 83.5 °F 65.3 °F 57% 30.09 in 10.0 mi SW 4.6 mph - N/A   Scattered Clouds
9:55 AM 82.8 °F 84.5 °F 65.3 °F 55% 30.10 in 10.0 mi WSW 5.8 mph - N/A   Clear
10:15 AM 84.0 °F 85.8 °F 64.9 °F 53% 30.10 in 10.0 mi WSW 4.6 mph - N/A   Clear
10:35 AM 86.0 °F 87.3 °F 64.0 °F 48% 30.10 in 10.0 mi SW 4.6 mph - N/A   Clear
10:55 AM 86.7 °F 87.8 °F 63.5 °F 46% 30.10 in 10.0 mi Calm Calm - N/A   Clear
11:15 AM 88.9 °F 89.1 °F 61.3 °F 40% 30.10 in 10.0 mi South 4.6 mph - N/A   Clear
11:35 AM 90.0 °F 89.4 °F 59.5 °F 36% 30.10 in 10.0 mi SSE 5.8 mph - N/A   Clear
11:55 AM 91.9 °F 90.6 °F 56.8 °F 31% 30.09 in 10.0 mi South 6.9 mph - N/A   Scattered Clouds
12:15 PM 90.1 °F - 51.8 °F 27% 30.09 in 10.0 mi SSE 4.6 mph 19.6 mph N/A   Mostly Cloudy
12:35 PM 92.1 °F - 52.9 °F 26% 30.08 in 10.0 mi South 3.5 mph - N/A   Mostly Cloudy
12:55 PM 91.6 °F - 51.4 °F 25% 30.08 in 10.0 mi SSE 3.5 mph - N/A   Mostly Cloudy
1:15 PM 94.5 °F 92.3 °F 54.1 °F 26% 30.07 in 10.0 mi ESE 11.5 mph - N/A   Mostly Cloudy
1:35 PM 92.8 °F 90.6 °F 54.7 °F 27% 30.07 in 10.0 mi ESE 4.6 mph - N/A   Scattered Clouds
1:55 PM 93.4 °F 91.8 °F 56.3 °F 29% 30.06 in 10.0 mi ESE 15.0 mph 24.2 mph N/A   Mostly Cloudy
2:15 PM 94.3 °F 93.0 °F 57.0 °F 29% 30.06 in 10.0 mi East 4.6 mph 21.9 mph N/A   Scattered Clouds
2:35 PM 93.2 °F 91.3 °F 55.6 °F 28% 30.05 in 10.0 mi SSE 9.2 mph - N/A   Scattered Clouds
2:55 PM 93.7 °F 92.0 °F 56.1 °F 28% 30.05 in 10.0 mi SE 9.2 mph - N/A   Mostly Cloudy
3:15 PM 92.7 °F 90.4 °F 54.5 °F 27% 30.04 in 10.0 mi SSE 11.5 mph - N/A   Mostly Cloudy
3:35 PM 94.1 °F 91.9 °F 53.8 °F 26% 30.03 in 10.0 mi SSE 11.5 mph 16.1 mph N/A   Scattered Clouds
3:55 PM 94.5 °F 92.3 °F 54.7 °F 26% 30.03 in 10.0 mi SE 13.8 mph - N/A   Clear
4:15 PM 92.5 °F 90.2 °F 54.0 °F 27% 30.02 in 10.0 mi SSE 4.6 mph 9.2 mph N/A   Clear
4:35 PM 91.9 °F 90.0 °F 55.6 °F 29% 30.02 in 10.0 mi South 8.1 mph - N/A   Clear
4:55 PM 92.5 °F 91.0 °F 57.0 °F 30% 30.01 in 10.0 mi South 6.9 mph - N/A   Clear
5:15 PM 92.5 °F 91.0 °F 57.0 °F 30% 30.01 in 10.0 mi SSE 8.1 mph - N/A   Clear
5:35 PM 92.5 °F 91.0 °F 56.8 °F 30% 30.01 in 10.0 mi Calm Calm - N/A   Clear
5:55 PM 92.3 °F 90.7 °F 56.5 °F 30% 30.00 in 10.0 mi SE 5.8 mph - N/A   Scattered Clouds
6:15 PM 91.9 °F 90.3 °F 55.9 °F 30% 29.99 in 10.0 mi SSE 12.7 mph - N/A   Scattered Clouds
6:35 PM 91.4 °F 89.6 °F 55.9 °F 30% 29.99 in 10.0 mi South 6.9 mph - N/A   Clear
6:55 PM 90.9 °F 89.2 °F 56.5 °F 31% 29.99 in 10.0 mi SSE 4.6 mph - N/A   Clear
7:15 PM 90.3 °F 89.0 °F 57.4 °F 33% 29.99 in 10.0 mi SE 3.5 mph - N/A   Clear
7:35 PM 89.6 °F 88.4 °F 57.7 °F 34% 30.00 in 10.0 mi Calm Calm - N/A   Clear
7:55 PM 88.3 °F 87.8 °F 59.5 °F 38% 30.00 in 10.0 mi East 4.6 mph - N/A   Scattered Clouds
8:15 PM 87.8 °F 87.4 °F 59.9 °F 39% 30.00 in 10.0 mi East 5.8 mph - N/A   Scattered Clouds
8:35 PM 86.9 °F 86.7 °F 60.3 °F 41% 30.01 in 10.0 mi ESE 4.6 mph - N/A   Mostly Cloudy
8:55 PM 85.6 °F 85.4 °F 60.4 °F 42% 30.01 in 10.0 mi East 5.8 mph - N/A   Clear
9:15 PM 84.4 °F 84.6 °F 60.8 °F 45% 30.02 in 10.0 mi ESE 6.9 mph - N/A   Clear
9:35 PM 83.5 °F 83.7 °F 61.0 °F 46% 30.03 in 10.0 mi ESE 6.9 mph - N/A   Clear
9:55 PM 82.8 °F 83.3 °F 61.0 °F 48% 30.04 in 10.0 mi SE 6.9 mph - N/A   Scattered Clouds
10:15 PM 82.4 °F 82.9 °F 60.8 °F 48% 30.05 in 10.0 mi SE 6.9 mph - N/A   Scattered Clouds
10:35 PM 81.7 °F 82.3 °F 60.8 °F 49% 30.05 in 10.0 mi SSE 6.9 mph - N/A   Scattered Clouds
10:55 PM 81.7 °F 82.4 °F 61.5 °F 50% 30.06 in 10.0 mi SE 8.1 mph - N/A   Clear
11:15 PM 81.5 °F 82.5 °F 62.1 °F 52% 30.06 in 10.0 mi SSE 9.2 mph - N/A   Clear
11:35 PM 81.0 °F 82.2 °F 63.1 °F 54% 30.06 in 10.0 mi SSE 8.1 mph - N/A   Clear
11:55 PM 80.6 °F 82.0 °F 63.7 °F 56% 30.06 in 10.0 mi SSE 9.2 mph - N/A   Clear